Niamey, Niger

6:56 PM WAT on April 01, 2015 (GMT +0100)
Diori Hamani | | Change Station
CLOSE
Current Station
Airport
Location: Niamey,
Elevation: 745 ft
Nearby Weather Stations

Elev 745 ft 13.48 °N, 2.17 °E | Updated 56 minutes ago

Clear
Clear
97 °F
Feels Like 97 °F
N
15
Wind Variable Wind from East

Today
High -- | Low -- °F
--% Chance of Precip.
Yesterday
High -- | Low -- °F
Precip. -- in
6:47 AM 7:03 PM
Waxing Gibbous, 93% visible
Pressure 29.86 in
Visibility 3.7 miles
Clouds
Dew Point 16 °F
Humidity 5%
Rainfall 0.00 in
Snow Depth Not available.
UV Not available.
Pollen Not available.
Air Quality Not available.
Flu Activity Not available.
METAR DRRN 011700Z 08013KT 6000 NSC 36/M09 Q1011 NOSIG

More Conditions Fewer Conditions

Pressure 29.86 in
Visibility 3.7 miles
Clouds
Dew Point 16 °F
Humidity 5%
Rainfall 0.00 in
Snow Depth Not available.
UV Not available.
Pollen Not available.
Air Quality Not available.
Flu Activity Not available.
METAR DRRN 011700Z 08013KT 6000 NSC 36/M09 Q1011 NOSIG

More Conditions Fewer Conditions

10-Day Weather Forecast

Almanac

Astronomy

Apr. 01, 2015 Rise Set
Actual Time
Civil Twilight
Nautical Twilight
Astronomical Twilight
Moon
Length of Visible Light
Length of Day
Tomorrow will be .
, % of the Moon is Illuminated

Today's Extremes

Country Highs Country Lows

Community

WunderPhotos

Upload Photos

1,810,018 photos uploaded!

WunderBlogs® & News

Nearby

Air Quality

  Air Quality AQ Index Pollutant
Not available.

Snow Depth

Station Depth Elevation

Earthquake Activity

City Distance Mag. Time & Date
Minimum magnitude displayed is 2.5.

Coastal Water Temperatures

Place Temperature

Stations

Nearby Weather Stations

Station Location Temp. Windchill Dew Point Humidity Wind Precip. Elev Updated Type